createdAt,value
2023-04-20T00:00:54.706Z,5.98
2023-04-20T00:15:54.553Z,6.01
2023-04-20T00:30:55.535Z,5.98
2023-04-20T00:45:54.274Z,5.92
2023-04-20T01:00:54.072Z,5.92
2023-04-20T01:15:53.986Z,5.82
2023-04-20T01:30:53.780Z,5.73
2023-04-20T01:45:53.728Z,5.66
2023-04-20T02:00:53.973Z,5.68
2023-04-20T02:15:53.327Z,5.75
2023-04-20T02:30:53.224Z,5.85
2023-04-20T02:45:53.016Z,5.88
2023-04-20T03:00:52.870Z,5.93
2023-04-20T03:15:52.751Z,6.00
2023-04-20T03:30:52.568Z,6.00
2023-04-20T03:45:52.472Z,6.11
2023-04-20T04:00:52.271Z,6.01
2023-04-20T04:15:52.141Z,6.00
2023-04-20T04:30:51.977Z,6.06
2023-04-20T04:45:51.835Z,6.04
2023-04-20T05:00:51.653Z,6.16
2023-04-20T05:15:51.557Z,6.16
2023-04-20T05:30:51.372Z,6.29
2023-04-20T05:45:51.275Z,6.26
2023-04-20T06:00:51.042Z,6.47
2023-04-20T06:15:50.925Z,6.47
2023-04-20T06:30:50.814Z,6.61
2023-04-20T06:45:50.600Z,6.79
2023-04-20T07:00:50.524Z,7.32
2023-04-20T07:15:50.291Z,8.44
2023-04-20T07:30:50.150Z,8.18
2023-04-20T07:45:50.094Z,8.12
2023-04-20T08:00:49.837Z,8.26
2023-04-20T08:15:49.837Z,9.06
2023-04-20T08:30:49.560Z,9.02
2023-04-20T08:45:49.354Z,8.66
2023-04-20T09:00:49.165Z,8.11
2023-04-20T09:15:49.069Z,7.82
2023-04-20T09:30:48.853Z,8.11
2023-04-20T09:45:48.760Z,8.62
2023-04-20T10:00:48.560Z,9.01
2023-04-20T10:15:48.384Z,9.94
2023-04-20T10:30:48.220Z,11.86
2023-04-20T10:45:48.135Z,12.06
2023-04-20T11:00:48.300Z,12.79
2023-04-20T11:15:47.911Z,12.24
2023-04-20T11:30:47.634Z,12.48
2023-04-20T11:45:47.465Z,11.96
2023-04-20T12:00:47.317Z,12.54
2023-04-20T12:15:47.170Z,12.87
2023-04-20T12:30:46.927Z,14.13
2023-04-20T12:45:46.799Z,14.39
2023-04-20T13:00:46.684Z,14.74
2023-04-20T13:15:46.468Z,14.43
2023-04-20T13:30:46.321Z,15.13
2023-04-20T13:45:46.177Z,15.05
2023-04-20T14:00:46.015Z,15.46
2023-04-20T14:15:45.904Z,15.66
2023-04-20T14:30:45.684Z,15.49
2023-04-20T14:45:45.605Z,16.00
2023-04-20T15:00:45.342Z,16.09
2023-04-20T15:15:48.931Z,15.64
2023-04-20T15:30:45.096Z,15.75
2023-04-20T15:45:45.061Z,15.68
2023-04-20T16:00:44.700Z,15.26
2023-04-20T16:15:45.600Z,15.48
2023-04-20T16:30:44.699Z,15.49
2023-04-20T16:45:44.286Z,15.38
2023-04-20T17:00:44.079Z,15.08
2023-04-20T17:15:43.941Z,14.39
2023-04-20T17:30:43.817Z,13.96
2023-04-20T17:45:43.617Z,13.29
2023-04-20T18:00:43.471Z,13.43
2023-04-20T18:15:43.414Z,12.96
2023-04-20T18:30:44.141Z,12.33
2023-04-20T18:45:43.049Z,11.71
2023-04-20T19:00:43.399Z,11.59
2023-04-20T19:15:42.623Z,11.34
2023-04-20T19:30:42.514Z,10.99
2023-04-20T19:45:42.340Z,10.59
2023-04-20T20:00:42.224Z,10.07
2023-04-20T20:15:42.010Z,9.85
2023-04-20T20:30:41.860Z,9.76
2023-04-20T20:45:41.681Z,9.86
2023-04-20T21:00:41.687Z,9.58
2023-04-20T21:15:41.373Z,9.43
2023-04-20T21:30:41.196Z,9.58
2023-04-20T21:45:41.083Z,9.82
2023-04-20T22:00:40.874Z,9.76
2023-04-20T22:15:40.754Z,9.76
2023-04-20T22:30:40.548Z,9.61
2023-04-20T22:45:40.418Z,9.58
2023-04-20T23:00:40.274Z,9.27
2023-04-20T23:15:40.090Z,9.30
2023-04-20T23:30:39.912Z,9.56
2023-04-20T23:45:39.854Z,9.56
